עמוד ראשי
METAR-TAF:

METAR-TAF

שדות תעופה :

Komakuk Beach, יוקון, קנדה

קו רוחב: 69-37N, קו אורך: 140-12W, גובה: 13מטר

תצפית מזג אוויר נוכחית

הדו"ח נערך לפני 41דקות, בשעה 16:00 UTC
רוח 4קשר מכיוון צפון/צפון-מזרח, משתנה בין צפון ו מזרח/צפון-מזרח
טמפרטורת 4 צלסיוס
לחות 87%
לחץ 1024 hPa

METAR: CWKM 151600Z AUTO 03004KT 360V060 ////SM ////// 04/02 A3023

זמן: 09:41 (16:41 UTC)


TAF: חסר

תצפיות ותחזיות מזג אוויר לגבי יותר מ- 4,000 שדות תעופה ברחבי העולם. דוחות METAR ו- TAF.

התחנות הזמינות מסומנות בנקודות צהובות ואדומות על גבי המפה.

העבר את העכבר לנקודה הצבעונית על מנת לראות את שם התחנה.

לאחר מכן, לחץ כדי לראות את תוכן ואת תחזיות מזג האוויר.

כדי לשנות את המפה: לחץ על הכפתורים הירוקים עם הפלוס השחור כדי להתקרב; על הכפתור הירוק עם המקף כדי להתרחק; או בחיצים הירוקים למפות סמוכות.


METAR-TAF: